sensor_id;sensor_type;location;lat;lon;timestamp;P1;P4;P2;P0;N10;N4;N25;N1;N05;TS
78557;SPS30;68325;52.124;5.424;2023-12-20T00:01:06;4.81;4.43;3.65;2.57;20.62;20.57;20.36;19.32;15.23;0.77
78557;SPS30;68325;52.124;5.424;2023-12-20T00:03:33;4.78;4.39;3.60;2.51;20.12;20.07;19.86;18.81;14.75;0.77
78557;SPS30;68325;52.124;5.424;2023-12-20T00:06:08;4.61;4.23;3.46;2.40;19.24;19.19;18.98;17.96;14.05;0.76
78557;SPS30;68325;52.124;5.424;2023-12-20T00:08:35;5.07;4.65;3.79;2.60;20.87;20.82;20.59;19.45;15.16;0.76
78557;SPS30;68325;52.124;5.424;2023-12-20T00:11:02;4.83;4.44;3.63;2.52;20.19;20.14;19.93;18.85;14.75;0.76
78557;SPS30;68325;52.124;5.424;2023-12-20T00:13:28;4.61;4.24;3.47;2.41;19.31;19.26;19.05;18.03;14.12;0.79
78557;SPS30;68325;52.124;5.424;2023-12-20T00:15:55;5.02;4.59;3.71;2.49;20.03;19.98;19.74;18.57;14.35;0.81
78557;SPS30;68325;52.124;5.424;2023-12-20T00:18:21;4.95;4.50;3.58;2.33;18.73;18.68;18.43;17.22;13.09;0.82
78557;SPS30;68325;52.124;5.424;2023-12-20T00:20:48;5.53;5.02;3.98;2.57;20.68;20.62;20.34;18.97;14.37;0.82
78557;SPS30;68325;52.124;5.424;2023-12-20T00:23:15;4.87;4.45;3.59;2.42;19.45;19.40;19.17;18.04;13.94;0.77
78557;SPS30;68325;52.124;5.424;2023-12-20T00:25:41;5.15;4.67;3.68;2.36;18.94;18.88;18.62;17.32;13.05;0.80
78557;SPS30;68325;52.124;5.424;2023-12-20T00:28:08;5.94;5.37;4.20;2.64;21.24;21.17;20.85;19.33;14.41;0.81
78557;SPS30;68325;52.124;5.424;2023-12-20T00:30:35;5.10;4.62;3.65;2.34;18.84;18.78;18.52;17.24;13.01;0.80
78557;SPS30;68325;52.124;5.424;2023-12-20T00:33:02;4.84;4.39;3.48;2.26;18.13;18.08;17.83;16.64;12.61;0.80
78557;SPS30;68325;52.124;5.424;2023-12-20T00:35:29;5.35;4.86;3.87;2.52;20.28;20.22;19.95;18.64;14.18;0.79
78557;SPS30;68325;52.124;5.424;2023-12-20T00:37:56;5.02;4.56;3.63;2.37;19.01;18.95;18.70;17.47;13.28;0.79
78557;SPS30;68325;52.124;5.424;2023-12-20T00:40:24;5.17;4.69;3.72;2.40;19.33;19.27;19.01;17.73;13.43;0.80
78557;SPS30;68325;52.124;5.424;2023-12-20T00:42:50;4.89;4.45;3.56;2.35;18.89;18.83;18.59;17.42;13.33;0.79
78557;SPS30;68325;52.124;5.424;2023-12-20T00:45:17;4.97;4.52;3.60;2.35;18.89;18.84;18.59;17.38;13.23;0.80
78557;SPS30;68325;52.124;5.424;2023-12-20T00:47:44;5.21;4.71;3.68;2.31;18.59;18.53;18.25;16.91;12.61;0.83
78557;SPS30;68325;52.124;5.424;2023-12-20T00:50:12;4.91;4.46;3.53;2.28;18.35;18.29;18.05;16.83;12.74;0.80
78557;SPS30;68325;52.124;5.424;2023-12-20T00:52:39;4.48;4.06;3.20;2.04;16.39;16.34;16.11;14.98;11.26;0.81
78557;SPS30;68325;52.124;5.424;2023-12-20T00:55:06;5.23;4.70;3.64;2.22;17.91;17.84;17.56;16.17;11.88;0.84
78557;SPS30;68325;52.124;5.424;2023-12-20T00:57:33;5.94;5.32;4.06;2.40;19.31;19.23;18.90;17.26;12.42;0.85
78557;SPS30;68325;52.124;5.424;2023-12-20T01:00:00;5.38;4.83;3.71;2.23;17.96;17.89;17.59;16.14;11.73;0.83
78557;SPS30;68325;52.124;5.424;2023-12-20T01:02:27;5.77;5.19;3.99;2.41;19.44;19.36;19.05;17.49;12.76;0.84
78557;SPS30;68325;52.124;5.424;2023-12-20T01:04:53;5.41;4.87;3.77;2.31;18.60;18.54;18.24;16.81;12.37;0.83
78557;SPS30;68325;52.124;5.424;2023-12-20T01:07:20;5.89;5.27;4.02;2.37;19.08;19.01;18.67;17.05;12.25;0.85
78557;SPS30;68325;52.124;5.424;2023-12-20T01:09:47;5.99;5.34;4.00;2.26;18.23;18.15;17.79;16.07;11.22;0.87
78557;SPS30;68325;52.124;5.424;2023-12-20T01:12:14;5.75;5.15;3.91;2.29;18.45;18.38;18.05;16.45;11.77;0.85
78557;SPS30;68325;52.124;5.424;2023-12-20T01:14:40;5.44;4.87;3.72;2.20;17.71;17.64;17.33;15.84;11.40;0.87
78557;SPS30;68325;52.124;5.424;2023-12-20T01:17:07;5.45;4.88;3.73;2.21;17.78;17.71;17.40;15.90;11.46;0.87
78557;SPS30;68325;52.124;5.424;2023-12-20T01:19:34;5.26;4.74;3.68;2.26;18.18;18.11;17.83;16.44;12.11;0.84
78557;SPS30;68325;52.124;5.424;2023-12-20T01:22:01;4.94;4.46;3.50;2.20;17.68;17.62;17.36;16.09;12.01;0.83
78557;SPS30;68325;52.124;5.424;2023-12-20T01:24:28;4.87;4.41;3.48;2.23;17.93;17.87;17.62;16.40;12.36;0.81
78557;SPS30;68325;52.124;5.424;2023-12-20T01:26:54;4.70;4.28;3.42;2.25;18.07;18.02;17.79;16.66;12.73;0.79
78557;SPS30;68325;52.124;5.424;2023-12-20T01:29:21;4.81;4.37;3.47;2.25;18.08;18.02;17.78;16.60;12.59;0.80
78557;SPS30;68325;52.124;5.424;2023-12-20T01:31:48;5.19;4.71;3.74;2.43;19.49;19.43;19.17;17.89;13.57;0.80
78557;SPS30;68325;52.124;5.424;2023-12-20T01:34:14;5.14;4.67;3.70;2.40;19.26;19.20;18.94;17.67;13.38;0.81
78557;SPS30;68325;52.124;5.424;2023-12-20T01:36:41;4.59;4.17;3.32;2.16;17.37;17.32;17.09;15.97;12.14;0.80
78557;SPS30;68325;52.124;5.424;2023-12-20T01:39:08;5.20;4.70;3.68;2.32;18.66;18.60;18.33;17.00;12.70;0.81
78557;SPS30;68325;52.124;5.424;2023-12-20T01:41:50;6.03;5.42;4.17;2.52;20.29;20.21;19.88;18.26;13.32;0.84
78557;SPS30;68325;52.124;5.424;2023-12-20T01:44:17;5.33;4.81;3.74;2.32;18.68;18.62;18.33;16.94;12.54;0.82
78557;SPS30;68325;52.124;5.424;2023-12-20T01:46:43;5.55;5.01;3.90;2.43;19.51;19.45;19.15;17.70;13.12;0.82
78557;SPS30;68325;52.124;5.424;2023-12-20T01:49:11;5.73;5.18;4.04;2.53;20.37;20.30;20.00;18.52;13.79;0.82
78557;SPS30;68325;52.124;5.424;2023-12-20T01:51:38;6.02;5.42;4.21;2.59;20.84;20.77;20.44;18.86;13.91;0.84
78557;SPS30;68325;52.124;5.424;2023-12-20T01:54:05;5.76;5.19;4.02;2.47;19.90;19.83;19.52;18.00;13.26;0.84
78557;SPS30;68325;52.124;5.424;2023-12-20T01:56:32;5.74;5.18;4.03;2.50;20.15;20.08;19.77;18.28;13.55;0.84
78557;SPS30;68325;52.124;5.424;2023-12-20T01:59:00;5.53;4.99;3.89;2.42;19.44;19.37;19.08;17.64;13.08;0.86
78557;SPS30;68325;52.124;5.424;2023-12-20T02:01:27;6.43;5.78;4.46;2.72;21.86;21.78;21.43;19.71;14.44;0.86
78557;SPS30;68325;52.124;5.424;2023-12-20T02:03:55;5.59;5.05;3.95;2.48;19.91;19.85;19.55;18.11;13.49;0.82
78557;SPS30;68325;52.124;5.424;2023-12-20T02:06:23;5.34;4.82;3.76;2.34;18.83;18.76;18.48;17.09;12.68;0.83
78557;SPS30;68325;52.124;5.424;2023-12-20T02:08:55;6.27;5.64;4.34;2.63;21.17;21.09;20.75;19.06;13.92;0.86
78557;SPS30;68325;52.124;5.424;2023-12-20T02:11:22;6.40;5.73;4.37;2.58;20.79;20.71;20.35;18.58;13.36;0.86
78557;SPS30;68325;52.124;5.424;2023-12-20T02:13:49;6.14;5.53;4.28;2.62;21.12;21.04;20.71;19.09;14.04;0.82
78557;SPS30;68325;52.124;5.424;2023-12-20T02:16:15;6.17;5.54;4.27;2.58;20.74;20.66;20.32;18.66;13.61;0.83
78557;SPS30;68325;52.124;5.424;2023-12-20T02:18:42;5.63;5.08;3.94;2.43;19.56;19.50;19.19;17.71;13.08;0.81
78557;SPS30;68325;52.124;5.424;2023-12-20T02:21:10;5.32;4.83;3.82;2.46;19.81;19.75;19.48;18.16;13.73;0.78
78557;SPS30;68325;52.124;5.424;2023-12-20T02:23:37;5.79;5.26;4.17;2.70;21.73;21.67;21.38;19.95;15.12;0.78
78557;SPS30;68325;52.124;5.424;2023-12-20T02:26:04;5.85;5.31;4.20;2.71;21.80;21.73;21.43;19.98;15.11;0.77
78557;SPS30;68325;52.124;5.424;2023-12-20T02:28:32;5.87;5.34;4.26;2.80;22.50;22.44;22.15;20.73;15.82;0.77
78557;SPS30;68325;52.124;5.424;2023-12-20T02:31:00;5.44;4.94;3.93;2.55;20.52;20.46;20.19;18.85;14.32;0.79
78557;SPS30;68325;52.124;5.424;2023-12-20T02:33:26;6.04;5.47;4.33;2.78;22.34;22.27;21.96;20.45;15.44;0.81
78557;SPS30;68325;52.124;5.424;2023-12-20T02:35:53;5.77;5.26;4.22;2.80;22.48;22.41;22.13;20.76;15.92;0.78
78557;SPS30;68325;52.124;5.424;2023-12-20T02:38:20;6.17;5.60;4.43;2.85;22.88;22.81;22.50;20.96;15.82;0.81
78557;SPS30;68325;52.124;5.424;2023-12-20T02:40:46;6.08;5.50;4.32;2.74;22.05;21.98;21.67;20.12;15.09;0.83
78557;SPS30;68325;52.124;5.424;2023-12-20T02:43:15;5.59;5.07;4.01;2.57;20.70;20.63;20.35;18.95;14.31;0.80
78557;SPS30;68325;52.124;5.424;2023-12-20T02:45:42;5.90;5.34;4.20;2.66;21.43;21.36;21.06;19.56;14.67;0.82
78557;SPS30;68325;52.124;5.424;2023-12-20T02:48:09;6.60;5.95;4.64;2.88;23.18;23.10;22.75;21.03;15.59;0.82
78557;SPS30;68325;52.124;5.424;2023-12-20T02:50:36;6.25;5.67;4.48;2.89;23.22;23.15;22.83;21.28;16.08;0.78
78557;SPS30;68325;52.124;5.424;2023-12-20T02:53:02;6.52;5.91;4.67;3.00;24.14;24.06;23.73;22.10;16.68;0.81
78557;SPS30;68325;52.124;5.424;2023-12-20T02:55:29;6.00;5.44;4.31;2.78;22.37;22.30;22.00;20.51;15.52;0.81
78557;SPS30;68325;52.124;5.424;2023-12-20T02:57:56;6.43;5.84;4.62;2.99;24.03;23.96;23.63;22.04;16.69;0.81
78557;SPS30;68325;52.124;5.424;2023-12-20T03:00:22;6.62;6.00;4.72;3.01;24.24;24.16;23.82;22.15;16.66;0.81
78557;SPS30;68325;52.124;5.424;2023-12-20T03:02:49;7.25;6.57;5.16;3.27;26.33;26.25;25.87;24.03;18.02;0.80
78557;SPS30;68325;52.124;5.424;2023-12-20T03:05:16;6.53;5.91;4.66;2.97;23.87;23.80;23.46;21.82;16.40;0.80
78557;SPS30;68325;52.124;5.424;2023-12-20T03:07:43;6.83;6.19;4.87;3.10;24.94;24.86;24.50;22.78;17.11;0.81
78557;SPS30;68325;52.124;5.424;2023-12-20T03:10:10;7.46;6.72;5.21;3.21;25.82;25.73;25.33;23.36;17.23;0.82
78557;SPS30;68325;52.124;5.424;2023-12-20T03:12:48;7.33;6.61;5.14;3.18;25.57;25.48;25.09;23.17;17.13;0.82
78557;SPS30;68325;52.124;5.424;2023-12-20T03:15:15;6.93;6.26;4.88;3.05;24.56;24.48;24.11;22.32;16.60;0.82
78557;SPS30;68325;52.124;5.424;2023-12-20T03:17:42;7.66;6.89;5.32;3.24;26.04;25.95;25.53;23.48;17.20;0.84
78557;SPS30;68325;52.124;5.424;2023-12-20T03:20:09;7.96;7.16;5.52;3.35;26.95;26.85;26.41;24.28;17.75;0.85
78557;SPS30;68325;52.124;5.424;2023-12-20T03:22:36;8.00;7.19;5.54;3.35;26.96;26.85;26.41;24.26;17.70;0.84
78557;SPS30;68325;52.124;5.424;2023-12-20T03:25:02;7.62;6.86;5.31;3.26;26.23;26.13;25.72;23.70;17.44;0.83
78557;SPS30;68325;52.124;5.424;2023-12-20T03:27:29;7.34;6.59;5.05;3.02;24.29;24.19;23.78;21.78;15.78;0.85
78557;SPS30;68325;52.124;5.424;2023-12-20T03:29:56;7.38;6.60;4.99;2.89;23.26;23.16;22.73;20.65;14.66;0.87
78557;SPS30;68325;52.124;5.424;2023-12-20T03:32:22;8.22;7.38;5.66;3.39;27.26;27.16;26.70;24.47;17.75;0.84
78557;SPS30;68325;52.124;5.424;2023-12-20T03:34:49;8.24;7.41;5.71;3.45;27.77;27.67;27.21;25.00;18.24;0.84
78557;SPS30;68325;52.124;5.424;2023-12-20T03:37:16;7.71;6.92;5.30;3.16;25.46;25.36;24.93;22.83;16.52;0.87
78557;SPS30;68325;52.124;5.424;2023-12-20T03:39:43;7.62;6.83;5.24;3.13;25.19;25.09;24.67;22.59;16.37;0.87
78557;SPS30;68325;52.124;5.424;2023-12-20T03:42:09;8.14;7.28;5.53;3.22;25.93;25.82;25.35;23.07;16.45;0.88
78557;SPS30;68325;52.124;5.424;2023-12-20T03:44:38;8.95;8.01;6.09;3.56;28.72;28.61;28.09;25.60;18.32;0.88
78557;SPS30;68325;52.124;5.424;2023-12-20T03:47:06;8.38;7.47;5.60;3.17;25.54;25.42;24.93;22.52;15.75;0.88
78557;SPS30;68325;52.124;5.424;2023-12-20T03:49:33;8.78;7.80;5.81;3.22;25.96;25.84;25.31;22.74;15.68;0.90
78557;SPS30;68325;52.124;5.424;2023-12-20T03:51:59;9.21;8.18;6.07;3.33;26.87;26.74;26.18;23.46;16.06;0.91
78557;SPS30;68325;52.124;5.424;2023-12-20T03:54:26;8.86;7.87;5.85;3.23;26.06;25.94;25.40;22.80;15.67;0.89
78557;SPS30;68325;52.124;5.424;2023-12-20T03:56:53;7.67;6.86;5.21;3.04;24.46;24.36;23.92;21.78;15.54;0.85
78557;SPS30;68325;52.124;5.424;2023-12-20T03:59:19;7.79;6.95;5.25;3.02;24.31;24.20;23.75;21.54;15.23;0.86
78557;SPS30;68325;52.124;5.424;2023-12-20T04:01:46;7.99;7.11;5.33;3.00;24.22;24.12;23.64;21.34;14.89;0.87
78557;SPS30;68325;52.124;5.424;2023-12-20T04:04:13;8.38;7.46;5.60;3.17;25.57;25.45;24.96;22.55;15.78;0.88
78557;SPS30;68325;52.124;5.424;2023-12-20T04:06:40;8.65;7.69;5.73;3.18;25.65;25.53;25.01;22.48;15.52;0.91
78557;SPS30;68325;52.124;5.424;2023-12-20T04:09:07;8.50;7.54;5.60;3.07;24.78;24.66;24.14;21.64;14.81;0.91
78557;SPS30;68325;52.124;5.424;2023-12-20T04:11:36;8.39;7.47;5.60;3.16;25.45;25.34;24.84;22.43;15.65;0.90
78557;SPS30;68325;52.124;5.424;2023-12-20T04:14:03;7.57;6.76;5.10;2.93;23.60;23.50;23.06;20.92;14.78;0.89
78557;SPS30;68325;52.124;5.424;2023-12-20T04:16:31;8.55;7.60;5.68;3.18;25.62;25.50;24.99;22.51;15.62;0.92
78557;SPS30;68325;52.124;5.424;2023-12-20T04:18:57;8.81;7.86;5.92;3.37;27.18;27.06;26.54;24.03;16.89;0.90
78557;SPS30;68325;52.124;5.424;2023-12-20T04:21:24;8.52;7.60;5.71;3.25;26.18;26.06;25.56;23.12;16.23;0.93
78557;SPS30;68325;52.124;5.424;2023-12-20T04:23:51;8.93;7.94;5.90;3.26;26.33;26.21;25.67;23.05;15.87;0.94
78557;SPS30;68325;52.124;5.424;2023-12-20T04:26:17;8.41;7.50;5.63;3.18;25.66;25.55;25.05;22.63;15.83;0.93
78557;SPS30;68325;52.124;5.424;2023-12-20T04:28:44;8.06;7.18;5.36;3.00;24.22;24.11;23.62;21.29;14.78;0.93
78557;SPS30;68325;52.124;5.424;2023-12-20T04:31:10;8.23;7.33;5.47;3.05;24.62;24.51;24.01;21.62;14.98;0.94
78557;SPS30;68325;52.124;5.424;2023-12-20T04:33:37;9.43;8.37;6.18;3.35;27.06;26.93;26.34;23.53;15.97;0.95
78557;SPS30;68325;52.124;5.424;2023-12-20T04:36:04;8.74;7.77;5.77;3.18;25.69;25.57;25.04;22.47;15.44;0.92
78557;SPS30;68325;52.124;5.424;2023-12-20T04:38:31;8.30;7.42;5.61;3.25;26.20;26.09;25.61;23.28;16.54;0.90
78557;SPS30;68325;52.124;5.424;2023-12-20T04:40:57;8.60;7.68;5.80;3.33;26.85;26.74;26.24;23.80;16.83;0.91
78557;SPS30;68325;52.124;5.424;2023-12-20T04:43:24;7.96;7.12;5.40;3.14;25.30;25.20;24.74;22.51;16.04;0.89
78557;SPS30;68325;52.124;5.424;2023-12-20T04:45:51;7.55;6.78;5.21;3.13;25.21;25.11;24.69;22.65;16.47;0.86
78557;SPS30;68325;52.124;5.424;2023-12-20T04:48:18;8.08;7.21;5.41;3.08;24.80;24.69;24.21;21.90;15.36;0.89
78557;SPS30;68325;52.124;5.424;2023-12-20T04:50:45;8.19;7.30;5.50;3.14;25.34;25.23;24.76;22.42;15.79;0.89
78557;SPS30;68325;52.124;5.424;2023-12-20T04:53:11;7.74;6.93;5.27;3.09;24.93;24.83;24.39;22.24;15.93;0.87
78557;SPS30;68325;52.124;5.424;2023-12-20T04:55:38;7.81;6.99;5.31;3.10;24.96;24.86;24.41;22.23;15.88;0.88
78557;SPS30;68325;52.124;5.424;2023-12-20T04:58:05;7.76;6.96;5.31;3.13;25.23;25.13;24.69;22.55;16.22;0.87
78557;SPS30;68325;52.124;5.424;2023-12-20T05:00:32;7.49;6.71;5.11;3.01;24.28;24.18;23.76;21.69;15.58;0.87
78557;SPS30;68325;52.124;5.424;2023-12-20T05:02:59;8.53;7.60;5.69;3.21;25.87;25.75;25.24;22.78;15.89;0.89
78557;SPS30;68325;52.124;5.424;2023-12-20T05:05:26;10.10;8.94;6.58;3.53;28.52;28.38;27.75;24.72;16.64;0.92
78557;SPS30;68325;52.124;5.424;2023-12-20T05:07:52;9.88;8.76;6.46;3.49;28.15;28.02;27.40;24.45;16.54;0.91
78557;SPS30;68325;52.124;5.424;2023-12-20T05:10:19;9.83;8.73;6.50;3.59;29.00;28.86;28.27;25.39;17.48;0.90
78557;SPS30;68325;52.124;5.424;2023-12-20T05:12:46;9.00;7.98;5.88;3.16;25.53;25.41;24.85;22.15;14.94;0.92
78557;SPS30;68325;52.124;5.424;2023-12-20T05:15:13;9.77;8.65;6.35;3.37;27.25;27.11;26.50;23.54;15.73;0.96
78557;SPS30;68325;52.124;5.424;2023-12-20T05:17:39;9.34;8.32;6.23;3.50;28.25;28.12;27.57;24.87;17.33;0.91
78557;SPS30;68325;52.124;5.424;2023-12-20T05:20:07;8.83;7.90;6.00;3.51;28.28;28.16;27.66;25.20;18.01;0.87
78557;SPS30;68325;52.124;5.424;2023-12-20T05:22:34;8.01;7.15;5.39;3.09;24.89;24.79;24.32;22.04;15.55;0.89
78557;SPS30;68325;52.124;5.424;2023-12-20T05:25:00;8.53;7.61;5.72;3.26;26.29;26.17;25.67;23.24;16.34;0.89
78557;SPS30;68325;52.124;5.424;2023-12-20T05:27:27;9.26;8.22;6.10;3.35;27.03;26.91;26.34;23.61;16.17;0.91
78557;SPS30;68325;52.124;5.424;2023-12-20T05:29:54;8.75;7.78;5.80;3.22;25.98;25.86;25.33;22.78;15.73;0.90
78557;SPS30;68325;52.124;5.424;2023-12-20T05:32:24;8.87;7.88;5.87;3.24;26.17;26.05;25.51;22.91;15.77;0.91
78557;SPS30;68325;52.124;5.424;2023-12-20T05:34:51;8.93;7.98;6.03;3.48;28.05;27.93;27.42;24.90;17.65;0.88
78557;SPS30;68325;52.124;5.424;2023-12-20T05:37:18;7.86;7.05;5.38;3.18;25.60;25.50;25.05;22.89;16.48;0.86
78557;SPS30;68325;52.124;5.424;2023-12-20T05:39:45;8.62;7.70;5.82;3.36;27.07;26.96;26.46;24.02;17.03;0.88
78557;SPS30;68325;52.124;5.424;2023-12-20T05:42:12;7.99;7.16;5.47;3.24;26.09;25.98;25.53;23.34;16.82;0.87
78557;SPS30;68325;52.124;5.424;2023-12-20T05:44:38;8.74;7.82;5.93;3.46;27.86;27.74;27.24;24.80;17.69;0.87
78557;SPS30;68325;52.124;5.424;2023-12-20T05:47:05;8.41;7.50;5.64;3.21;25.89;25.77;25.28;22.88;16.07;0.88
78557;SPS30;68325;52.124;5.424;2023-12-20T05:49:32;8.66;7.72;5.81;3.31;26.73;26.61;26.10;23.63;16.62;0.89
78557;SPS30;68325;52.124;5.424;2023-12-20T05:51:58;8.21;7.30;5.43;3.01;24.25;24.14;23.65;21.24;14.63;0.90
78557;SPS30;68325;52.124;5.424;2023-12-20T05:54:25;9.20;8.21;6.17;3.51;28.30;28.17;27.63;25.00;17.55;0.88
78557;SPS30;68325;52.124;5.424;2023-12-20T05:56:52;7.67;6.89;5.28;3.16;25.45;25.35;24.92;22.83;16.56;0.84
78557;SPS30;68325;52.124;5.424;2023-12-20T05:59:18;8.04;7.20;5.47;3.20;25.82;25.71;25.25;23.02;16.47;0.87
78557;SPS30;68325;52.124;5.424;2023-12-20T06:01:45;8.31;7.43;5.64;3.28;26.46;26.35;25.87;23.55;16.79;0.86
78557;SPS30;68325;52.124;5.424;2023-12-20T06:04:12;7.49;6.71;5.12;3.03;24.40;24.30;23.88;21.81;15.70;0.84
78557;SPS30;68325;52.124;5.424;2023-12-20T06:06:42;7.25;6.51;5.00;3.00;24.13;24.04;23.63;21.67;15.73;0.84
78557;SPS30;68325;52.124;5.424;2023-12-20T06:09:10;7.71;6.90;5.22;3.03;24.41;24.31;23.87;21.70;15.44;0.87
78557;SPS30;68325;52.124;5.424;2023-12-20T06:11:37;8.14;7.29;5.57;3.29;26.54;26.43;25.97;23.73;17.10;0.85
78557;SPS30;68325;52.124;5.424;2023-12-20T06:14:04;7.77;6.95;5.28;3.08;24.84;24.74;24.29;22.12;15.80;0.86
78557;SPS30;68325;52.124;5.424;2023-12-20T06:16:31;7.34;6.58;5.03;2.99;24.06;23.97;23.56;21.55;15.56;0.86
78557;SPS30;68325;52.124;5.424;2023-12-20T06:18:57;7.93;7.08;5.34;3.06;24.69;24.58;24.12;21.87;15.44;0.88
78557;SPS30;68325;52.124;5.424;2023-12-20T06:21:24;8.43;7.53;5.69;3.27;26.36;26.25;25.76;23.37;16.53;0.87
78557;SPS30;68325;52.124;5.424;2023-12-20T06:23:51;7.64;6.84;5.20;3.04;24.51;24.41;23.98;21.85;15.63;0.86
78557;SPS30;68325;52.124;5.424;2023-12-20T06:26:17;7.63;6.82;5.17;3.00;24.19;24.09;23.65;21.51;15.31;0.87
78557;SPS30;68325;52.124;5.424;2023-12-20T06:28:44;8.65;7.74;5.87;3.43;27.62;27.51;27.01;24.60;17.56;0.88
78557;SPS30;68325;52.124;5.424;2023-12-20T06:31:11;8.11;7.26;5.51;3.22;25.95;25.84;25.38;23.11;16.51;0.89
78557;SPS30;68325;52.124;5.424;2023-12-20T06:33:38;8.26;7.37;5.56;3.18;25.63;25.52;25.04;22.69;16.00;0.91
78557;SPS30;68325;52.124;5.424;2023-12-20T06:36:07;8.58;7.63;5.67;3.13;25.22;25.10;24.58;22.06;15.16;0.94
78557;SPS30;68325;52.124;5.424;2023-12-20T06:38:34;8.89;7.91;5.90;3.29;26.55;26.43;25.89;23.31;16.14;0.92
78557;SPS30;68325;52.124;5.424;2023-12-20T06:41:00;8.53;7.59;5.68;3.19;25.70;25.58;25.08;22.61;15.72;0.91
78557;SPS30;68325;52.124;5.424;2023-12-20T06:43:27;8.35;7.45;5.62;3.22;25.93;25.82;25.33;22.96;16.19;0.90
78557;SPS30;68325;52.124;5.424;2023-12-20T06:46:11;7.60;6.81;5.21;3.10;24.93;24.84;24.41;22.33;16.12;0.85
78557;SPS30;68325;52.124;5.424;2023-12-20T06:48:39;7.90;7.06;5.36;3.13;25.24;25.14;24.69;22.48;16.06;0.86
78557;SPS30;68325;52.124;5.424;2023-12-20T06:51:10;7.19;6.46;4.97;2.99;24.07;23.98;23.58;21.64;15.75;0.83
78557;SPS30;68325;52.124;5.424;2023-12-20T06:53:38;7.79;6.99;5.37;3.23;26.02;25.93;25.49;23.39;17.01;0.83
78557;SPS30;68325;52.124;5.424;2023-12-20T06:56:05;8.09;7.23;5.49;3.20;25.82;25.71;25.25;22.99;16.42;0.87
78557;SPS30;68325;52.124;5.424;2023-12-20T06:58:32;8.02;7.16;5.39;3.08;24.82;24.71;24.24;21.96;15.46;0.89
78557;SPS30;68325;52.124;5.424;2023-12-20T07:00:58;7.46;6.67;5.05;2.93;23.61;23.51;23.08;20.98;14.92;0.87
78557;SPS30;68325;52.124;5.424;2023-12-20T07:03:25;8.40;7.51;5.69;3.30;26.56;26.45;25.97;23.61;16.78;0.89
78557;SPS30;68325;52.124;5.424;2023-12-20T07:05:52;8.31;7.42;5.61;3.24;26.11;26.00;25.52;23.18;16.43;0.90
78557;SPS30;68325;52.124;5.424;2023-12-20T07:08:18;8.19;7.30;5.49;3.12;25.16;25.05;24.56;22.22;15.60;0.91
78557;SPS30;68325;52.124;5.424;2023-12-20T07:10:45;8.08;7.23;5.48;3.18;25.67;25.56;25.09;22.83;16.26;0.88
78557;SPS30;68325;52.124;5.424;2023-12-20T07:13:12;8.77;7.81;5.84;3.28;26.47;26.35;25.83;23.29;16.22;0.89
78557;SPS30;68325;52.124;5.424;2023-12-20T07:15:40;7.84;7.00;5.29;3.05;24.58;24.47;24.02;21.80;15.45;0.87
78557;SPS30;68325;52.124;5.424;2023-12-20T07:18:07;7.44;6.66;5.08;3.00;24.17;24.07;23.65;21.60;15.53;0.86
78557;SPS30;68325;52.124;5.424;2023-12-20T07:20:34;7.99;7.13;5.37;3.06;24.70;24.59;24.12;21.84;15.37;0.89
78557;SPS30;68325;52.124;5.424;2023-12-20T07:23:00;9.07;8.07;6.04;3.39;27.31;27.19;26.65;24.02;16.71;0.92
78557;SPS30;68325;52.124;5.424;2023-12-20T07:25:27;9.00;8.02;6.02;3.40;27.44;27.32;26.79;24.20;16.92;0.91
78557;SPS30;68325;52.124;5.424;2023-12-20T07:27:54;7.92;7.11;5.44;3.24;26.07;25.97;25.52;23.36;16.88;0.84
78557;SPS30;68325;52.124;5.424;2023-12-20T07:30:21;7.91;7.10;5.45;3.26;26.23;26.13;25.69;23.53;17.06;0.84
78557;SPS30;68325;52.124;5.424;2023-12-20T07:32:47;7.62;6.86;5.31;3.24;26.09;25.99;25.58;23.55;17.29;0.82
78557;SPS30;68325;52.124;5.424;2023-12-20T07:35:17;8.92;8.01;6.14;3.67;29.55;29.44;28.94;26.51;19.22;0.84
78557;SPS30;68325;52.124;5.424;2023-12-20T07:37:44;7.19;6.47;5.02;3.08;24.80;24.71;24.32;22.42;16.51;0.81
78557;SPS30;68325;52.124;5.424;2023-12-20T07:40:11;7.72;6.95;5.38;3.29;26.44;26.35;25.93;23.88;17.53;0.83
78557;SPS30;68325;52.124;5.424;2023-12-20T07:42:38;7.91;7.10;5.44;3.24;26.13;26.03;25.59;23.43;16.97;0.85
78557;SPS30;68325;52.124;5.424;2023-12-20T07:45:05;7.10;6.40;4.97;3.06;24.65;24.56;24.18;22.31;16.47;0.83
78557;SPS30;68325;52.124;5.424;2023-12-20T07:47:31;7.15;6.45;5.01;3.10;24.97;24.88;24.50;22.63;16.74;0.83
78557;SPS30;68325;52.124;5.424;2023-12-20T07:49:58;8.19;7.33;5.56;3.25;26.15;26.04;25.57;23.28;16.62;0.87
78557;SPS30;68325;52.124;5.424;2023-12-20T07:52:25;8.41;7.51;5.68;3.27;26.39;26.28;25.79;23.41;16.59;0.87
78557;SPS30;68325;52.124;5.424;2023-12-20T07:54:52;9.66;8.59;6.42;3.59;28.95;28.82;28.24;25.44;17.65;0.90
78557;SPS30;68325;52.124;5.424;2023-12-20T07:57:19;8.57;7.62;5.69;3.17;25.57;25.46;24.94;22.45;15.54;0.92
78557;SPS30;68325;52.124;5.424;2023-12-20T07:59:45;9.28;8.24;6.12;3.36;27.14;27.02;26.45;23.72;16.27;0.93
78557;SPS30;68325;52.124;5.424;2023-12-20T08:02:12;8.57;7.63;5.73;3.24;26.11;26.00;25.49;23.03;16.10;0.89
78557;SPS30;68325;52.124;5.424;2023-12-20T08:04:39;8.63;7.71;5.83;3.38;27.21;27.09;26.59;24.17;17.16;0.90
78557;SPS30;68325;52.124;5.424;2023-12-20T08:07:05;8.50;7.59;5.72;3.27;26.37;26.26;25.76;23.34;16.45;0.90
78557;SPS30;68325;52.124;5.424;2023-12-20T08:09:32;8.04;7.22;5.53;3.30;26.59;26.49;26.04;23.85;17.28;0.86
78557;SPS30;68325;52.124;5.424;2023-12-20T08:12:00;7.50;6.74;5.19;3.13;25.18;25.09;24.67;22.65;16.50;0.86
78557;SPS30;68325;52.124;5.424;2023-12-20T08:14:27;7.44;6.71;5.20;3.20;25.72;25.63;25.23;23.27;17.14;0.84
78557;SPS30;68325;52.124;5.424;2023-12-20T08:16:53;7.82;7.01;5.36;3.19;25.67;25.57;25.13;22.99;16.61;0.85
78557;SPS30;68325;52.124;5.424;2023-12-20T08:19:20;9.06;8.08;6.08;3.46;27.92;27.80;27.26;24.67;17.34;0.89
78557;SPS30;68325;52.124;5.424;2023-12-20T08:21:46;8.65;7.72;5.80;3.30;26.59;26.47;25.96;23.49;16.49;0.90
78557;SPS30;68325;52.124;5.424;2023-12-20T08:24:13;9.18;8.18;6.14;3.47;27.96;27.84;27.29;24.65;17.23;0.90
78557;SPS30;68325;52.124;5.424;2023-12-20T08:26:40;7.93;7.09;5.37;3.11;25.05;24.94;24.49;22.26;15.82;0.87
78557;SPS30;68325;52.124;5.424;2023-12-20T08:29:06;9.11;8.11;6.06;3.39;27.38;27.26;26.71;24.07;16.72;0.91
78557;SPS30;68325;52.124;5.424;2023-12-20T08:31:33;9.75;8.65;6.40;3.49;28.15;28.01;27.41;24.52;16.70;0.91
78557;SPS30;68325;52.124;5.424;2023-12-20T08:34:00;9.30;8.25;6.12;3.35;27.07;26.94;26.37;23.63;16.16;0.91
78557;SPS30;68325;52.124;5.424;2023-12-20T08:36:27;9.05;8.03;5.95;3.25;26.24;26.11;25.56;22.88;15.61;0.91
78557;SPS30;68325;52.124;5.424;2023-12-20T08:38:54;10.16;8.98;6.57;3.46;27.92;27.78;27.13;24.04;15.93;0.96
78557;SPS30;68325;52.124;5.424;2023-12-20T08:41:21;10.17;9.01;6.64;3.57;28.84;28.70;28.07;25.02;16.88;0.94
78557;SPS30;68325;52.124;5.424;2023-12-20T08:43:48;10.02;8.89;6.58;3.59;29.00;28.86;28.25;25.28;17.24;0.93
78557;SPS30;68325;52.124;5.424;2023-12-20T08:46:15;8.46;7.51;5.56;3.04;24.53;24.41;23.89;21.39;14.60;0.94
78557;SPS30;68325;52.124;5.424;2023-12-20T08:48:42;8.89;7.88;5.81;3.14;25.34;25.22;24.67;22.01;14.89;0.95
78557;SPS30;68325;52.124;5.424;2023-12-20T08:51:09;8.72;7.75;5.78;3.21;25.86;25.75;25.22;22.67;15.65;0.92
78557;SPS30;68325;52.124;5.424;2023-12-20T08:53:36;8.55;7.62;5.71;3.23;26.02;25.90;25.39;22.93;16.02;0.91
78557;SPS30;68325;52.124;5.424;2023-12-20T08:56:03;8.47;7.53;5.61;3.12;25.13;25.02;24.51;22.03;15.21;0.93
78557;SPS30;68325;52.124;5.424;2023-12-20T08:58:30;8.62;7.68;5.75;3.23;26.03;25.92;25.40;22.91;15.95;0.92
78557;SPS30;68325;52.124;5.424;2023-12-20T09:00:57;7.97;7.13;5.42;3.17;25.58;25.48;25.02;22.80;16.32;0.88
78557;SPS30;68325;52.124;5.424;2023-12-20T09:03:24;8.79;7.80;5.79;3.17;25.56;25.43;24.90;22.30;15.24;0.91
78557;SPS30;68325;52.124;5.424;2023-12-20T09:05:51;9.01;8.01;5.97;3.30;26.66;26.54;25.99;23.36;16.10;0.89
78557;SPS30;68325;52.124;5.424;2023-12-20T09:08:17;8.19;7.31;5.52;3.17;25.57;25.46;24.99;22.67;16.03;0.88
78557;SPS30;68325;52.124;5.424;2023-12-20T09:10:44;9.21;8.20;6.15;3.48;28.06;27.94;27.39;24.75;17.30;0.92